Startpagina
METAR-TAF:

METAR-TAF

Vliegvelden :

Skelton Airport

Eureka, Alaska, Verenigde Staten

breedte: 61-56N, lengte: 147-10W, hoogte: 1002 m

Actueel weer

Dit bericht is 51 minuten geleden gemaakt, om 23:56 UTC
Wind 9 kt uit het noordnoordwesten
Temperatuur 1°C
Vochtigheid 59%
Druk 1001 hPa
Zicht: 16.1 km
Onbewolkt

METAR: PAZK 212356Z AUTO 34009KT 10SM CLR 01/M06 A2956 RMK AO2 SLP056 T00061056 10011 21039 58008 FZRANO

Tijdstip: 16:47 (00:47 UTC)


TAF: ontbreekt

Waarnemingen en weersverwachtingen van meer dan 4000 vliegvelden (METAR en TAF).

De beschikbare stations zijn de gele en rode punten op de kaart.

Ga met uw muis naar het station om de naam te zien.

Klik dan om waarnemingen en weersverwachtingen te zien.

kaart wijzigen: klik op de groene knoppen met een zwart kruis om in te zoomen, op de groene knop met een streepje om uit te zoomen of op de groene pijlen voor aangrenzende kaarten.


METAR-TAF: